sensor_id;sensor_type;location;lat;lon;timestamp;temperature;humidity
19168;DHT22;9716;53.114;18.040;2023-09-18T00:00:55;18.20;99.90
19168;DHT22;9716;53.114;18.040;2023-09-18T00:03:42;18.20;99.90
19168;DHT22;9716;53.114;18.040;2023-09-18T00:06:11;18.20;99.90
19168;DHT22;9716;53.114;18.040;2023-09-18T00:08:40;18.10;99.90
19168;DHT22;9716;53.114;18.040;2023-09-18T00:11:08;18.10;99.90
19168;DHT22;9716;53.114;18.040;2023-09-18T00:13:37;18.10;99.90
19168;DHT22;9716;53.114;18.040;2023-09-18T00:16:05;18.10;99.90
19168;DHT22;9716;53.114;18.040;2023-09-18T00:18:34;18.10;99.90
19168;DHT22;9716;53.114;18.040;2023-09-18T00:21:04;18.10;99.90
19168;DHT22;9716;53.114;18.040;2023-09-18T00:23:33;18.10;99.90
19168;DHT22;9716;53.114;18.040;2023-09-18T00:26:03;18.10;99.90
19168;DHT22;9716;53.114;18.040;2023-09-18T00:28:31;18.10;99.90
19168;DHT22;9716;53.114;18.040;2023-09-18T00:31:00;18.10;99.90
19168;DHT22;9716;53.114;18.040;2023-09-18T00:33:28;18.10;99.90
19168;DHT22;9716;53.114;18.040;2023-09-18T00:35:56;18.00;99.90
19168;DHT22;9716;53.114;18.040;2023-09-18T00:38:26;18.00;99.90
19168;DHT22;9716;53.114;18.040;2023-09-18T00:40:55;18.00;99.90
19168;DHT22;9716;53.114;18.040;2023-09-18T00:43:23;18.00;99.90
19168;DHT22;9716;53.114;18.040;2023-09-18T00:45:52;17.90;99.90
19168;DHT22;9716;53.114;18.040;2023-09-18T00:48:21;17.90;99.90
19168;DHT22;9716;53.114;18.040;2023-09-18T00:50:49;17.90;99.90
19168;DHT22;9716;53.114;18.040;2023-09-18T00:53:20;17.90;99.90
19168;DHT22;9716;53.114;18.040;2023-09-18T00:55:53;17.80;99.90
19168;DHT22;9716;53.114;18.040;2023-09-18T00:58:22;17.80;99.90
19168;DHT22;9716;53.114;18.040;2023-09-18T01:00:51;17.80;99.90
19168;DHT22;9716;53.114;18.040;2023-09-18T01:03:19;17.80;99.90
19168;DHT22;9716;53.114;18.040;2023-09-18T01:05:50;17.80;99.90
19168;DHT22;9716;53.114;18.040;2023-09-18T01:08:18;17.80;99.90
19168;DHT22;9716;53.114;18.040;2023-09-18T01:10:52;17.80;99.90
19168;DHT22;9716;53.114;18.040;2023-09-18T01:13:29;17.80;99.90
19168;DHT22;9716;53.114;18.040;2023-09-18T01:16:02;17.80;99.90
19168;DHT22;9716;53.114;18.040;2023-09-18T01:18:32;17.90;99.90
19168;DHT22;9716;53.114;18.040;2023-09-18T01:21:01;17.90;99.90
19168;DHT22;9716;53.114;18.040;2023-09-18T01:23:30;17.90;99.90
19168;DHT22;9716;53.114;18.040;2023-09-18T01:25:59;17.90;99.90
19168;DHT22;9716;53.114;18.040;2023-09-18T01:28:27;17.90;99.90
19168;DHT22;9716;53.114;18.040;2023-09-18T01:30:56;17.90;99.90
19168;DHT22;9716;53.114;18.040;2023-09-18T01:33:26;17.90;99.90
19168;DHT22;9716;53.114;18.040;2023-09-18T01:35:55;17.90;99.90
19168;DHT22;9716;53.114;18.040;2023-09-18T01:38:25;17.80;99.90
19168;DHT22;9716;53.114;18.040;2023-09-18T01:40:56;17.80;99.90
19168;DHT22;9716;53.114;18.040;2023-09-18T01:43:25;17.80;99.90
19168;DHT22;9716;53.114;18.040;2023-09-18T01:45:55;17.80;99.90
19168;DHT22;9716;53.114;18.040;2023-09-18T01:48:23;17.80;99.90
19168;DHT22;9716;53.114;18.040;2023-09-18T01:50:52;17.80;99.90
19168;DHT22;9716;53.114;18.040;2023-09-18T01:53:20;17.80;99.90
19168;DHT22;9716;53.114;18.040;2023-09-18T01:55:49;17.80;99.90
19168;DHT22;9716;53.114;18.040;2023-09-18T01:58:19;17.70;99.90
19168;DHT22;9716;53.114;18.040;2023-09-18T02:00:48;17.70;99.90
19168;DHT22;9716;53.114;18.040;2023-09-18T02:03:17;17.70;99.90
19168;DHT22;9716;53.114;18.040;2023-09-18T02:06:07;17.60;99.90
19168;DHT22;9716;53.114;18.040;2023-09-18T02:08:37;17.60;99.90
19168;DHT22;9716;53.114;18.040;2023-09-18T02:11:05;17.60;99.90
19168;DHT22;9716;53.114;18.040;2023-09-18T02:13:35;17.50;99.90
19168;DHT22;9716;53.114;18.040;2023-09-18T02:16:04;17.50;99.90
19168;DHT22;9716;53.114;18.040;2023-09-18T02:18:32;17.50;99.90
19168;DHT22;9716;53.114;18.040;2023-09-18T02:21:01;17.40;99.90
19168;DHT22;9716;53.114;18.040;2023-09-18T02:23:29;17.40;99.90
19168;DHT22;9716;53.114;18.040;2023-09-18T02:25:58;17.40;99.90
19168;DHT22;9716;53.114;18.040;2023-09-18T02:28:27;17.40;99.90
19168;DHT22;9716;53.114;18.040;2023-09-18T02:30:57;17.40;99.90
19168;DHT22;9716;53.114;18.040;2023-09-18T02:33:25;17.40;99.90
19168;DHT22;9716;53.114;18.040;2023-09-18T02:35:54;17.40;99.90
19168;DHT22;9716;53.114;18.040;2023-09-18T02:38:23;17.40;99.90
19168;DHT22;9716;53.114;18.040;2023-09-18T02:40:52;17.40;99.90
19168;DHT22;9716;53.114;18.040;2023-09-18T02:43:21;17.40;99.90
19168;DHT22;9716;53.114;18.040;2023-09-18T02:45:49;17.40;99.90
19168;DHT22;9716;53.114;18.040;2023-09-18T02:48:19;17.30;99.90
19168;DHT22;9716;53.114;18.040;2023-09-18T02:50:48;17.30;99.90
19168;DHT22;9716;53.114;18.040;2023-09-18T02:53:17;17.30;99.90
19168;DHT22;9716;53.114;18.040;2023-09-18T02:55:47;17.30;99.90
19168;DHT22;9716;53.114;18.040;2023-09-18T02:58:15;17.30;99.90
19168;DHT22;9716;53.114;18.040;2023-09-18T03:00:49;17.30;99.90
19168;DHT22;9716;53.114;18.040;2023-09-18T03:03:19;17.30;99.90
19168;DHT22;9716;53.114;18.040;2023-09-18T03:05:51;17.30;99.90
19168;DHT22;9716;53.114;18.040;2023-09-18T03:08:19;17.30;99.90
19168;DHT22;9716;53.114;18.040;2023-09-18T03:10:48;17.30;99.90
19168;DHT22;9716;53.114;18.040;2023-09-18T03:13:16;17.30;99.90
19168;DHT22;9716;53.114;18.040;2023-09-18T03:15:45;17.30;99.90
19168;DHT22;9716;53.114;18.040;2023-09-18T03:18:15;17.20;99.90
19168;DHT22;9716;53.114;18.040;2023-09-18T03:20:45;17.20;99.90
19168;DHT22;9716;53.114;18.040;2023-09-18T03:23:13;17.30;99.90
19168;DHT22;9716;53.114;18.040;2023-09-18T03:25:42;17.20;99.90
19168;DHT22;9716;53.114;18.040;2023-09-18T03:28:18;17.20;99.90
19168;DHT22;9716;53.114;18.040;2023-09-18T03:30:46;17.20;99.90
19168;DHT22;9716;53.114;18.040;2023-09-18T03:33:15;17.20;99.90
19168;DHT22;9716;53.114;18.040;2023-09-18T03:35:48;17.10;99.90
19168;DHT22;9716;53.114;18.040;2023-09-18T03:38:17;17.10;99.90
19168;DHT22;9716;53.114;18.040;2023-09-18T03:40:46;17.20;99.90
19168;DHT22;9716;53.114;18.040;2023-09-18T03:43:14;17.10;99.90
19168;DHT22;9716;53.114;18.040;2023-09-18T03:45:43;17.10;99.90
19168;DHT22;9716;53.114;18.040;2023-09-18T03:48:11;17.10;99.90
19168;DHT22;9716;53.114;18.040;2023-09-18T03:50:40;17.10;99.90
19168;DHT22;9716;53.114;18.040;2023-09-18T03:53:11;17.10;99.90
19168;DHT22;9716;53.114;18.040;2023-09-18T03:55:39;17.10;99.90
19168;DHT22;9716;53.114;18.040;2023-09-18T03:58:08;17.00;99.90
19168;DHT22;9716;53.114;18.040;2023-09-18T04:00:37;17.00;99.90
19168;DHT22;9716;53.114;18.040;2023-09-18T04:03:06;17.00;99.90
19168;DHT22;9716;53.114;18.040;2023-09-18T04:05:36;17.00;99.90
19168;DHT22;9716;53.114;18.040;2023-09-18T04:08:05;17.00;99.90
19168;DHT22;9716;53.114;18.040;2023-09-18T04:10:35;17.00;99.90
19168;DHT22;9716;53.114;18.040;2023-09-18T04:13:03;17.00;99.90
19168;DHT22;9716;53.114;18.040;2023-09-18T04:15:32;16.90;99.90
19168;DHT22;9716;53.114;18.040;2023-09-18T04:18:05;16.90;99.90
19168;DHT22;9716;53.114;18.040;2023-09-18T04:20:33;16.90;99.90
19168;DHT22;9716;53.114;18.040;2023-09-18T04:23:20;16.90;99.90
19168;DHT22;9716;53.114;18.040;2023-09-18T04:25:52;16.80;99.90
19168;DHT22;9716;53.114;18.040;2023-09-18T04:28:21;16.80;99.90
19168;DHT22;9716;53.114;18.040;2023-09-18T04:30:50;16.80;99.90
19168;DHT22;9716;53.114;18.040;2023-09-18T04:33:19;16.80;99.90
19168;DHT22;9716;53.114;18.040;2023-09-18T04:35:49;16.80;99.90
19168;DHT22;9716;53.114;18.040;2023-09-18T04:38:17;16.80;99.90
19168;DHT22;9716;53.114;18.040;2023-09-18T04:40:47;16.80;99.90
19168;DHT22;9716;53.114;18.040;2023-09-18T04:43:17;16.80;99.90
19168;DHT22;9716;53.114;18.040;2023-09-18T04:45:45;16.80;99.90
19168;DHT22;9716;53.114;18.040;2023-09-18T04:48:14;16.90;99.90
19168;DHT22;9716;53.114;18.040;2023-09-18T04:50:43;16.90;99.90
19168;DHT22;9716;53.114;18.040;2023-09-18T04:53:12;16.90;99.90
19168;DHT22;9716;53.114;18.040;2023-09-18T04:55:41;16.90;99.90
19168;DHT22;9716;53.114;18.040;2023-09-18T04:58:10;16.90;99.90
19168;DHT22;9716;53.114;18.040;2023-09-18T05:00:39;16.90;99.90
19168;DHT22;9716;53.114;18.040;2023-09-18T05:03:09;16.90;99.90
19168;DHT22;9716;53.114;18.040;2023-09-18T05:05:38;17.00;99.90
19168;DHT22;9716;53.114;18.040;2023-09-18T05:08:07;17.00;99.90
19168;DHT22;9716;53.114;18.040;2023-09-18T05:10:37;17.00;99.90
19168;DHT22;9716;53.114;18.040;2023-09-18T05:13:05;17.00;99.90
19168;DHT22;9716;53.114;18.040;2023-09-18T05:15:34;17.10;99.90
19168;DHT22;9716;53.114;18.040;2023-09-18T05:18:04;17.10;99.90
19168;DHT22;9716;53.114;18.040;2023-09-18T05:20:34;17.20;99.90
19168;DHT22;9716;53.114;18.040;2023-09-18T05:23:03;17.20;99.90
19168;DHT22;9716;53.114;18.040;2023-09-18T05:25:34;17.20;99.90
19168;DHT22;9716;53.114;18.040;2023-09-18T05:28:05;17.30;99.90
19168;DHT22;9716;53.114;18.040;2023-09-18T05:30:34;17.30;99.90
19168;DHT22;9716;53.114;18.040;2023-09-18T05:33:07;17.40;99.90
19168;DHT22;9716;53.114;18.040;2023-09-18T05:35:40;17.50;99.90
19168;DHT22;9716;53.114;18.040;2023-09-18T05:38:09;17.60;99.90
19168;DHT22;9716;53.114;18.040;2023-09-18T05:40:38;17.70;99.90
19168;DHT22;9716;53.114;18.040;2023-09-18T05:43:07;17.80;99.90
19168;DHT22;9716;53.114;18.040;2023-09-18T05:45:36;18.00;99.90
19168;DHT22;9716;53.114;18.040;2023-09-18T05:48:04;18.20;99.90
19168;DHT22;9716;53.114;18.040;2023-09-18T05:50:35;18.40;99.90
19168;DHT22;9716;53.114;18.040;2023-09-18T05:53:04;18.70;99.90
19168;DHT22;9716;53.114;18.040;2023-09-18T05:55:36;18.90;99.90
19168;DHT22;9716;53.114;18.040;2023-09-18T05:58:04;19.20;99.90
19168;DHT22;9716;53.114;18.040;2023-09-18T06:00:34;19.50;99.90
19168;DHT22;9716;53.114;18.040;2023-09-18T06:03:04;19.80;99.90
19168;DHT22;9716;53.114;18.040;2023-09-18T06:05:35;20.00;99.90
19168;DHT22;9716;53.114;18.040;2023-09-18T06:08:04;20.20;99.90
19168;DHT22;9716;53.114;18.040;2023-09-18T06:10:33;20.40;99.90
19168;DHT22;9716;53.114;18.040;2023-09-18T06:13:01;20.70;99.90
19168;DHT22;9716;53.114;18.040;2023-09-18T06:15:32;20.90;99.90
19168;DHT22;9716;53.114;18.040;2023-09-18T06:18:00;21.20;99.90
19168;DHT22;9716;53.114;18.040;2023-09-18T06:20:29;21.30;99.90
19168;DHT22;9716;53.114;18.040;2023-09-18T06:22:59;21.50;99.90
19168;DHT22;9716;53.114;18.040;2023-09-18T06:25:28;21.70;99.90
19168;DHT22;9716;53.114;18.040;2023-09-18T06:27:58;21.90;99.90
19168;DHT22;9716;53.114;18.040;2023-09-18T06:30:29;22.00;99.90
19168;DHT22;9716;53.114;18.040;2023-09-18T06:32:58;22.10;99.90
19168;DHT22;9716;53.114;18.040;2023-09-18T06:35:27;22.30;99.90
19168;DHT22;9716;53.114;18.040;2023-09-18T06:37:55;22.50;99.90
19168;DHT22;9716;53.114;18.040;2023-09-18T06:40:27;22.80;99.90
19168;DHT22;9716;53.114;18.040;2023-09-18T06:42:58;23.10;99.90
19168;DHT22;9716;53.114;18.040;2023-09-18T06:45:27;23.30;99.90
19168;DHT22;9716;53.114;18.040;2023-09-18T06:47:56;23.50;99.90
19168;DHT22;9716;53.114;18.040;2023-09-18T06:50:25;23.70;99.90
19168;DHT22;9716;53.114;18.040;2023-09-18T06:52:53;23.90;99.90
19168;DHT22;9716;53.114;18.040;2023-09-18T06:55:21;24.20;99.90
19168;DHT22;9716;53.114;18.040;2023-09-18T06:57:51;24.50;99.90
19168;DHT22;9716;53.114;18.040;2023-09-18T07:00:21;24.70;99.90
19168;DHT22;9716;53.114;18.040;2023-09-18T07:02:49;24.90;99.90
19168;DHT22;9716;53.114;18.040;2023-09-18T07:05:18;25.20;99.90
19168;DHT22;9716;53.114;18.040;2023-09-18T07:07:47;25.40;99.90
19168;DHT22;9716;53.114;18.040;2023-09-18T07:10:16;25.60;99.90
19168;DHT22;9716;53.114;18.040;2023-09-18T07:12:44;25.70;99.90
19168;DHT22;9716;53.114;18.040;2023-09-18T07:15:14;25.70;99.90
19168;DHT22;9716;53.114;18.040;2023-09-18T07:17:42;25.80;99.90
19168;DHT22;9716;53.114;18.040;2023-09-18T07:20:11;25.90;99.90
19168;DHT22;9716;53.114;18.040;2023-09-18T07:22:46;26.00;99.90
19168;DHT22;9716;53.114;18.040;2023-09-18T07:25:15;26.30;99.90
19168;DHT22;9716;53.114;18.040;2023-09-18T07:27:44;26.60;99.90
19168;DHT22;9716;53.114;18.040;2023-09-18T07:30:14;26.80;99.90
19168;DHT22;9716;53.114;18.040;2023-09-18T07:32:45;27.00;99.90
19168;DHT22;9716;53.114;18.040;2023-09-18T07:35:14;27.10;99.90
19168;DHT22;9716;53.114;18.040;2023-09-18T07:37:43;27.30;99.90
19168;DHT22;9716;53.114;18.040;2023-09-18T07:40:14;27.40;99.90
19168;DHT22;9716;53.114;18.040;2023-09-18T07:42:44;27.50;99.90
19168;DHT22;9716;53.114;18.040;2023-09-18T07:45:15;27.70;99.90
19168;DHT22;9716;53.114;18.040;2023-09-18T07:47:44;27.90;99.90
19168;DHT22;9716;53.114;18.040;2023-09-18T07:50:13;28.00;99.90
19168;DHT22;9716;53.114;18.040;2023-09-18T07:52:45;28.20;99.90
19168;DHT22;9716;53.114;18.040;2023-09-18T07:55:14;28.30;99.70
19168;DHT22;9716;53.114;18.040;2023-09-18T07:57:42;28.40;99.40
19168;DHT22;9716;53.114;18.040;2023-09-18T08:00:14;28.40;99.30
19168;DHT22;9716;53.114;18.040;2023-09-18T08:02:43;28.50;99.20
19168;DHT22;9716;53.114;18.040;2023-09-18T08:05:12;28.70;98.90
19168;DHT22;9716;53.114;18.040;2023-09-18T08:07:40;28.90;98.40
19168;DHT22;9716;53.114;18.040;2023-09-18T08:10:09;28.90;98.00
19168;DHT22;9716;53.114;18.040;2023-09-18T08:12:39;28.90;97.90
19168;DHT22;9716;53.114;18.040;2023-09-18T08:15:08;28.90;97.70
19168;DHT22;9716;53.114;18.040;2023-09-18T08:17:39;29.00;97.70
19168;DHT22;9716;53.114;18.040;2023-09-18T08:20:10;29.00;97.60
19168;DHT22;9716;53.114;18.040;2023-09-18T08:22:41;28.90;97.70
19168;DHT22;9716;53.114;18.040;2023-09-18T08:25:10;28.90;97.60
19168;DHT22;9716;53.114;18.040;2023-09-18T08:27:40;28.90;97.60
19168;DHT22;9716;53.114;18.040;2023-09-18T08:30:11;28.80;97.70
19168;DHT22;9716;53.114;18.040;2023-09-18T08:32:42;28.70;97.70
19168;DHT22;9716;53.114;18.040;2023-09-18T08:35:11;28.70;97.80
19168;DHT22;9716;53.114;18.040;2023-09-18T08:37:40;28.60;98.00
19168;DHT22;9716;53.114;18.040;2023-09-18T08:40:10;28.50;98.00
19168;DHT22;9716;53.114;18.040;2023-09-18T08:42:45;28.60;98.10
19168;DHT22;9716;53.114;18.040;2023-09-18T08:45:22;28.70;98.00
19168;DHT22;9716;53.114;18.040;2023-09-18T08:47:54;28.70;97.80
19168;DHT22;9716;53.114;18.040;2023-09-18T08:50:24;28.80;97.70
19168;DHT22;9716;53.114;18.040;2023-09-18T08:52:53;28.80;97.50
19168;DHT22;9716;53.114;18.040;2023-09-18T08:55:23;28.80;97.40
19168;DHT22;9716;53.114;18.040;2023-09-18T08:57:53;28.80;97.40
19168;DHT22;9716;53.114;18.040;2023-09-18T09:00:21;28.80;97.40
19168;DHT22;9716;53.114;18.040;2023-09-18T09:02:50;28.70;97.30
19168;DHT22;9716;53.114;18.040;2023-09-18T09:05:24;28.80;97.20
19168;DHT22;9716;53.114;18.040;2023-09-18T09:07:52;28.80;97.20
19168;DHT22;9716;53.114;18.040;2023-09-18T09:10:22;28.90;97.10
19168;DHT22;9716;53.114;18.040;2023-09-18T09:12:54;28.90;97.00
19168;DHT22;9716;53.114;18.040;2023-09-18T09:15:24;28.90;97.00
19168;DHT22;9716;53.114;18.040;2023-09-18T09:18:03;28.80;96.90
19168;DHT22;9716;53.114;18.040;2023-09-18T09:20:34;28.90;96.70
19168;DHT22;9716;53.114;18.040;2023-09-18T09:23:05;28.90;96.70
19168;DHT22;9716;53.114;18.040;2023-09-18T09:25:35;28.90;96.50
19168;DHT22;9716;53.114;18.040;2023-09-18T09:28:05;29.00;96.50
19168;DHT22;9716;53.114;18.040;2023-09-18T09:30:35;29.00;96.30
19168;DHT22;9716;53.114;18.040;2023-09-18T09:33:05;28.90;96.00
19168;DHT22;9716;53.114;18.040;2023-09-18T09:35:36;28.90;96.10
19168;DHT22;9716;53.114;18.040;2023-09-18T09:38:09;28.90;96.10
19168;DHT22;9716;53.114;18.040;2023-09-18T09:40:40;29.00;96.00
19168;DHT22;9716;53.114;18.040;2023-09-18T09:43:10;29.10;96.00
19168;DHT22;9716;53.114;18.040;2023-09-18T09:45:41;29.20;95.60
19168;DHT22;9716;53.114;18.040;2023-09-18T09:48:09;29.30;95.40
19168;DHT22;9716;53.114;18.040;2023-09-18T09:50:46;29.30;95.40
19168;DHT22;9716;53.114;18.040;2023-09-18T09:53:16;29.40;94.90
19168;DHT22;9716;53.114;18.040;2023-09-18T09:55:51;29.40;94.50
19168;DHT22;9716;53.114;18.040;2023-09-18T09:58:26;29.40;94.40
19168;DHT22;9716;53.114;18.040;2023-09-18T10:01:03;29.40;94.10
19168;DHT22;9716;53.114;18.040;2023-09-18T10:03:37;29.40;94.20
19168;DHT22;9716;53.114;18.040;2023-09-18T10:06:09;29.40;93.90
19168;DHT22;9716;53.114;18.040;2023-09-18T10:08:40;29.30;93.80
19168;DHT22;9716;53.114;18.040;2023-09-18T10:11:09;29.30;93.60
19168;DHT22;9716;53.114;18.040;2023-09-18T10:13:47;29.20;93.70
19168;DHT22;9716;53.114;18.040;2023-09-18T10:16:18;29.20;93.90
19168;DHT22;9716;53.114;18.040;2023-09-18T10:18:56;29.30;93.80
19168;DHT22;9716;53.114;18.040;2023-09-18T10:21:35;29.30;93.70
19168;DHT22;9716;53.114;18.040;2023-09-18T10:24:13;29.30;93.70
19168;DHT22;9716;53.114;18.040;2023-09-18T10:26:50;29.30;93.60
19168;DHT22;9716;53.114;18.040;2023-09-18T10:29:19;29.30;93.70
19168;DHT22;9716;53.114;18.040;2023-09-18T10:31:50;29.30;93.70
19168;DHT22;9716;53.114;18.040;2023-09-18T10:34:19;29.30;93.60
19168;DHT22;9716;53.114;18.040;2023-09-18T10:36:51;29.30;93.70
19168;DHT22;9716;53.114;18.040;2023-09-18T10:39:20;29.40;93.30
19168;DHT22;9716;53.114;18.040;2023-09-18T10:41:52;29.30;93.20
19168;DHT22;9716;53.114;18.040;2023-09-18T10:44:22;29.30;93.20
19168;DHT22;9716;53.114;18.040;2023-09-18T10:46:52;29.30;93.20
19168;DHT22;9716;53.114;18.040;2023-09-18T10:49:20;29.30;93.20
19168;DHT22;9716;53.114;18.040;2023-09-18T10:51:54;29.20;93.20
19168;DHT22;9716;53.114;18.040;2023-09-18T10:54:24;29.20;93.10
19168;DHT22;9716;53.114;18.040;2023-09-18T10:56:53;29.20;93.10
19168;DHT22;9716;53.114;18.040;2023-09-18T10:59:21;29.20;93.50
19168;DHT22;9716;53.114;18.040;2023-09-18T11:01:50;29.20;93.50
19168;DHT22;9716;53.114;18.040;2023-09-18T11:04:21;29.20;92.90
19168;DHT22;9716;53.114;18.040;2023-09-18T11:07:07;29.20;92.80
19168;DHT22;9716;53.114;18.040;2023-09-18T11:09:42;29.20;92.70
19168;DHT22;9716;53.114;18.040;2023-09-18T11:12:15;29.10;92.80
19168;DHT22;9716;53.114;18.040;2023-09-18T11:14:47;29.10;92.80
19168;DHT22;9716;53.114;18.040;2023-09-18T11:17:34;29.00;92.90
19168;DHT22;9716;53.114;18.040;2023-09-18T11:20:08;29.00;92.80
19168;DHT22;9716;53.114;18.040;2023-09-18T11:22:39;29.00;92.70
19168;DHT22;9716;53.114;18.040;2023-09-18T11:25:38;29.00;92.60
19168;DHT22;9716;53.114;18.040;2023-09-18T11:28:09;28.90;92.40
19168;DHT22;9716;53.114;18.040;2023-09-18T11:30:49;28.90;92.50
19168;DHT22;9716;53.114;18.040;2023-09-18T11:33:30;28.90;92.50
19168;DHT22;9716;53.114;18.040;2023-09-18T11:36:04;28.90;92.50
19168;DHT22;9716;53.114;18.040;2023-09-18T11:38:52;28.90;92.50
19168;DHT22;9716;53.114;18.040;2023-09-18T11:41:26;28.90;92.20
19168;DHT22;9716;53.114;18.040;2023-09-18T11:46:58;28.80;91.90
19168;DHT22;9716;53.114;18.040;2023-09-18T11:49:28;28.80;91.70
19168;DHT22;9716;53.114;18.040;2023-09-18T11:51:59;28.70;91.70
19168;DHT22;9716;53.114;18.040;2023-09-18T11:54:31;28.70;91.50
19168;DHT22;9716;53.114;18.040;2023-09-18T11:57:03;28.70;91.50
19168;DHT22;9716;53.114;18.040;2023-09-18T11:59:35;28.70;91.10
19168;DHT22;9716;53.114;18.040;2023-09-18T12:02:04;28.70;91.00
19168;DHT22;9716;53.114;18.040;2023-09-18T12:04:36;28.60;90.80
19168;DHT22;9716;53.114;18.040;2023-09-18T12:07:05;28.50;91.00
19168;DHT22;9716;53.114;18.040;2023-09-18T12:09:37;28.50;91.00
19168;DHT22;9716;53.114;18.040;2023-09-18T12:12:06;28.50;90.60
19168;DHT22;9716;53.114;18.040;2023-09-18T12:14:35;28.40;90.70
19168;DHT22;9716;53.114;18.040;2023-09-18T12:17:05;28.40;90.80
19168;DHT22;9716;53.114;18.040;2023-09-18T12:19:35;28.30;90.80
19168;DHT22;9716;53.114;18.040;2023-09-18T12:22:03;28.30;90.90
19168;DHT22;9716;53.114;18.040;2023-09-18T12:24:32;28.20;90.80
19168;DHT22;9716;53.114;18.040;2023-09-18T12:27:04;28.20;90.80
19168;DHT22;9716;53.114;18.040;2023-09-18T12:29:33;28.10;90.90
19168;DHT22;9716;53.114;18.040;2023-09-18T12:32:01;28.00;91.00
19168;DHT22;9716;53.114;18.040;2023-09-18T12:34:33;28.00;91.10
19168;DHT22;9716;53.114;18.040;2023-09-18T12:37:03;27.90;91.20
19168;DHT22;9716;53.114;18.040;2023-09-18T12:39:32;27.90;91.40
19168;DHT22;9716;53.114;18.040;2023-09-18T12:42:03;27.90;91.50
19168;DHT22;9716;53.114;18.040;2023-09-18T12:44:33;27.80;91.70
19168;DHT22;9716;53.114;18.040;2023-09-18T12:47:02;27.80;91.70
19168;DHT22;9716;53.114;18.040;2023-09-18T12:49:31;27.70;91.70
19168;DHT22;9716;53.114;18.040;2023-09-18T12:52:01;27.70;91.80
19168;DHT22;9716;53.114;18.040;2023-09-18T12:54:38;27.70;91.80
19168;DHT22;9716;53.114;18.040;2023-09-18T12:57:09;27.70;91.90
19168;DHT22;9716;53.114;18.040;2023-09-18T12:59:38;27.60;92.00
19168;DHT22;9716;53.114;18.040;2023-09-18T13:02:06;27.60;92.00
19168;DHT22;9716;53.114;18.040;2023-09-18T13:04:36;27.60;92.00
19168;DHT22;9716;53.114;18.040;2023-09-18T13:07:11;27.50;92.00
19168;DHT22;9716;53.114;18.040;2023-09-18T13:09:39;27.50;92.40
19168;DHT22;9716;53.114;18.040;2023-09-18T13:12:10;27.50;92.00
19168;DHT22;9716;53.114;18.040;2023-09-18T13:14:57;27.50;92.00
19168;DHT22;9716;53.114;18.040;2023-09-18T13:17:26;27.50;92.00
19168;DHT22;9716;53.114;18.040;2023-09-18T13:19:55;27.50;91.90
19168;DHT22;9716;53.114;18.040;2023-09-18T13:22:24;27.50;91.10
19168;DHT22;9716;53.114;18.040;2023-09-18T13:24:56;27.60;91.20
19168;DHT22;9716;53.114;18.040;2023-09-18T13:27:26;27.80;91.00
19168;DHT22;9716;53.114;18.040;2023-09-18T13:29:55;27.90;91.00
19168;DHT22;9716;53.114;18.040;2023-09-18T13:32:23;28.10;90.90
19168;DHT22;9716;53.114;18.040;2023-09-18T13:34:52;28.30;90.70
19168;DHT22;9716;53.114;18.040;2023-09-18T13:37:20;28.30;90.60
19168;DHT22;9716;53.114;18.040;2023-09-18T13:39:49;28.50;90.60
19168;DHT22;9716;53.114;18.040;2023-09-18T13:42:17;28.60;90.30
19168;DHT22;9716;53.114;18.040;2023-09-18T13:44:47;28.60;90.30
19168;DHT22;9716;53.114;18.040;2023-09-18T13:47:17;28.70;90.20
19168;DHT22;9716;53.114;18.040;2023-09-18T13:49:45;28.80;90.00
19168;DHT22;9716;53.114;18.040;2023-09-18T13:52:14;28.80;89.90
19168;DHT22;9716;53.114;18.040;2023-09-18T13:54:43;28.80;89.20
19168;DHT22;9716;53.114;18.040;2023-09-18T13:57:18;28.90;89.10
19168;DHT22;9716;53.114;18.040;2023-09-18T13:59:49;29.00;88.90
19168;DHT22;9716;53.114;18.040;2023-09-18T14:02:18;29.00;88.50
19168;DHT22;9716;53.114;18.040;2023-09-18T14:04:47;29.00;88.60
19168;DHT22;9716;53.114;18.040;2023-09-18T14:07:16;29.00;88.00
19168;DHT22;9716;53.114;18.040;2023-09-18T14:09:44;29.00;88.20
19168;DHT22;9716;53.114;18.040;2023-09-18T14:12:14;29.00;88.30
19168;DHT22;9716;53.114;18.040;2023-09-18T14:14:43;28.90;88.00
19168;DHT22;9716;53.114;18.040;2023-09-18T14:17:13;28.90;87.70
19168;DHT22;9716;53.114;18.040;2023-09-18T14:19:44;28.80;87.50
19168;DHT22;9716;53.114;18.040;2023-09-18T14:22:13;28.80;87.70
19168;DHT22;9716;53.114;18.040;2023-09-18T14:24:42;28.70;87.60
19168;DHT22;9716;53.114;18.040;2023-09-18T14:27:11;28.70;88.50
19168;DHT22;9716;53.114;18.040;2023-09-18T14:29:39;28.60;87.40
19168;DHT22;9716;53.114;18.040;2023-09-18T14:32:08;28.60;87.20
19168;DHT22;9716;53.114;18.040;2023-09-18T14:34:39;28.60;87.20
19168;DHT22;9716;53.114;18.040;2023-09-18T14:37:08;28.50;86.90
19168;DHT22;9716;53.114;18.040;2023-09-18T14:39:36;28.60;86.90
19168;DHT22;9716;53.114;18.040;2023-09-18T14:42:05;28.50;87.00
19168;DHT22;9716;53.114;18.040;2023-09-18T14:44:34;28.50;87.00
19168;DHT22;9716;53.114;18.040;2023-09-18T14:47:07;28.50;87.10
19168;DHT22;9716;53.114;18.040;2023-09-18T14:49:35;28.50;87.00
19168;DHT22;9716;53.114;18.040;2023-09-18T14:52:05;28.40;87.10
19168;DHT22;9716;53.114;18.040;2023-09-18T14:54:34;28.40;87.30
19168;DHT22;9716;53.114;18.040;2023-09-18T14:57:02;28.40;86.90
19168;DHT22;9716;53.114;18.040;2023-09-18T14:59:31;28.40;86.70
19168;DHT22;9716;53.114;18.040;2023-09-18T15:02:08;28.40;86.80
19168;DHT22;9716;53.114;18.040;2023-09-18T15:04:37;28.40;86.80
19168;DHT22;9716;53.114;18.040;2023-09-18T15:07:06;28.40;86.90
19168;DHT22;9716;53.114;18.040;2023-09-18T15:09:35;28.40;86.80
19168;DHT22;9716;53.114;18.040;2023-09-18T15:12:04;28.40;86.90
19168;DHT22;9716;53.114;18.040;2023-09-18T15:14:35;28.40;86.80
19168;DHT22;9716;53.114;18.040;2023-09-18T15:17:04;28.40;86.90
19168;DHT22;9716;53.114;18.040;2023-09-18T15:19:34;28.40;86.80
19168;DHT22;9716;53.114;18.040;2023-09-18T15:22:02;28.40;86.90
19168;DHT22;9716;53.114;18.040;2023-09-18T15:24:33;28.40;86.90
19168;DHT22;9716;53.114;18.040;2023-09-18T15:27:02;28.40;87.00
19168;DHT22;9716;53.114;18.040;2023-09-18T15:29:30;28.30;87.10
19168;DHT22;9716;53.114;18.040;2023-09-18T15:32:01;28.30;87.10
19168;DHT22;9716;53.114;18.040;2023-09-18T15:34:33;28.30;87.40
19168;DHT22;9716;53.114;18.040;2023-09-18T15:37:01;28.30;87.50
19168;DHT22;9716;53.114;18.040;2023-09-18T15:39:33;28.20;87.60
19168;DHT22;9716;53.114;18.040;2023-09-18T15:42:02;28.20;87.90
19168;DHT22;9716;53.114;18.040;2023-09-18T15:44:31;28.20;88.10
19168;DHT22;9716;53.114;18.040;2023-09-18T15:47:02;28.10;88.10
19168;DHT22;9716;53.114;18.040;2023-09-18T15:49:31;28.00;88.20
19168;DHT22;9716;53.114;18.040;2023-09-18T15:52:00;28.00;88.30